Time;durP1;ratioP1;P1;durP2;ratioP2;P2;SDS_P1;SDS_P2;PMS_P1;PMS_P2;Temp;Humidity;BMP_temperature;BMP_pressure;BME280_temperature;BME280_humidity;BME280_pressure;Samples;Min_cycle;Max_cycle;Signal;HPM_P1;HPM_P2
2023/08/14 00:00:59;;;;;;;9.40;8.40;;;17.40;86.70;;;;;;5037595;28;20192;-92
2023/08/14 00:03:25;;;;;;;9.43;8.05;;;17.30;86.80;;;;;;5031998;28;20181;-92
2023/08/14 00:05:51;;;;;;;9.50;8.30;;;17.30;86.80;;;;;;5021006;28;20193;-94
2023/08/14 00:08:17;;;;;;;10.15;8.48;;;17.20;86.70;;;;;;5007405;28;20534;-93
2023/08/14 00:10:42;;;;;;;9.57;8.60;;;17.20;86.70;;;;;;5021069;28;20173;-94
2023/08/14 00:13:08;;;;;;;9.40;8.50;;;17.20;86.70;;;;;;5021124;28;20170;-94
2023/08/14 00:15:33;;;;;;;10.02;8.98;;;17.20;86.70;;;;;;5025882;28;20197;-94
2023/08/14 00:17:59;;;;;;;11.05;9.90;;;17.20;86.70;;;;;;5014403;28;20194;-94
2023/08/14 00:20:24;;;;;;;11.00;9.75;;;17.20;86.60;;;;;;5026228;28;20158;-95
2023/08/14 00:22:50;;;;;;;11.70;9.43;;;17.20;86.80;;;;;;5020506;28;20174;-91
2023/08/14 00:25:15;;;;;;;10.10;9.20;;;17.20;86.90;;;;;;5037518;28;20173;-94
2023/08/14 00:27:41;;;;;;;10.25;9.18;;;17.20;86.90;;;;;;5019428;28;20185;-94
2023/08/14 00:30:07;;;;;;;10.10;8.75;;;17.10;86.80;;;;;;5019433;28;20220;-93
2023/08/14 00:32:32;;;;;;;10.25;8.85;;;17.20;86.80;;;;;;5018444;28;20177;-91
2023/08/14 00:34:58;;;;;;;11.05;8.82;;;17.10;86.70;;;;;;5029431;28;20229;-92
2023/08/14 00:37:42;;;;;;;12.73;9.20;;;17.00;86.70;;;;;;5030913;28;20197;-93
2023/08/14 00:40:10;;;;;;;10.02;9.13;;;16.90;86.70;;;;;;5029189;28;20185;-93
2023/08/14 00:42:47;;;;;;;10.45;8.57;;;16.80;86.80;;;;;;5030123;28;20172;-93
2023/08/14 00:45:13;;;;;;;13.60;8.88;;;16.70;86.80;;;;;;5030483;28;20193;-93
2023/08/14 00:47:42;;;;;;;9.95;8.88;;;16.30;87.10;;;;;;5029258;28;20192;-93
2023/08/14 00:50:08;;;;;;;10.02;9.02;;;16.20;88.10;;;;;;5012424;28;20549;-93
2023/08/14 00:52:38;;;;;;;17.55;15.90;;;16.30;88.80;;;;;;5011536;28;20212;-93
2023/08/14 00:55:08;;;;;;;18.33;17.02;;;16.40;88.80;;;;;;5014041;28;20202;-93
2023/08/14 00:57:34;;;;;;;21.83;20.20;;;16.40;88.60;;;;;;5011980;28;20185;-92
2023/08/14 01:00:02;;;;;;;9.82;8.57;;;16.30;88.50;;;;;;5029679;28;20188;-93
2023/08/14 01:02:28;;;;;;;12.68;8.40;;;16.20;88.70;;;;;;5032940;28;20174;-92
2023/08/14 01:04:53;;;;;;;19.35;17.85;;;16.30;88.80;;;;;;5015054;28;20264;-93
2023/08/14 01:07:19;;;;;;;19.50;17.38;;;16.20;88.60;;;;;;5032962;28;20180;-93
2023/08/14 01:09:46;;;;;;;17.15;15.85;;;16.20;89.00;;;;;;5031745;28;20272;-93
2023/08/14 01:12:28;;;;;;;9.88;8.80;;;16.10;89.00;;;;;;5033759;28;20154;-93
2023/08/14 01:15:01;;;;;;;8.70;8.10;;;16.10;89.30;;;;;;5015436;28;20197;-92
2023/08/14 01:17:31;;;;;;;9.38;8.60;;;16.00;89.30;;;;;;5034027;28;20158;-93
2023/08/14 01:19:58;;;;;;;10.00;8.68;;;16.00;89.20;;;;;;5033588;28;20158;-92
2023/08/14 01:22:54;;;;;;;10.52;8.82;;;16.00;89.20;;;;;;5013998;28;20228;-93
2023/08/14 01:25:26;;;;;;;10.95;8.07;;;16.10;89.20;;;;;;5017423;28;20272;-93
2023/08/14 01:27:53;;;;;;;11.63;8.60;;;16.10;89.10;;;;;;5035423;28;20181;-93
2023/08/14 01:30:22;;;;;;;10.80;8.48;;;16.10;89.10;;;;;;5016484;28;20281;-93
2023/08/14 01:32:48;;;;;;;12.60;8.90;;;16.10;88.90;;;;;;5034932;28;20169;-93
2023/08/14 01:35:16;;;;;;;9.90;8.93;;;16.00;88.70;;;;;;5035531;28;20201;-92
2023/08/14 01:38:13;;;;;;;11.10;9.18;;;16.10;88.80;;;;;;5034248;28;20161;-93
2023/08/14 01:40:56;;;;;;;12.25;9.05;;;16.10;88.80;;;;;;5033278;28;20161;-93
2023/08/14 01:43:31;;;;;;;9.60;8.75;;;16.00;88.70;;;;;;5035529;28;20249;-92
2023/08/14 01:45:57;;;;;;;10.00;9.20;;;16.00;88.60;;;;;;5037528;28;20189;-92
2023/08/14 01:48:25;;;;;;;11.77;10.13;;;15.90;88.40;;;;;;5035222;28;20212;-92
2023/08/14 01:50:53;;;;;;;12.20;10.80;;;15.90;88.30;;;;;;5016874;28;20174;-93
2023/08/14 01:53:19;;;;;;;10.52;9.82;;;15.80;88.40;;;;;;5033454;28;20186;-92
2023/08/14 01:55:45;;;;;;;13.32;9.68;;;15.70;88.40;;;;;;5030966;28;20720;-92
2023/08/14 01:58:10;;;;;;;12.00;10.20;;;15.70;88.40;;;;;;5013764;28;20173;-92
2023/08/14 02:00:37;;;;;;;11.88;10.68;;;15.60;88.60;;;;;;5010058;28;20558;-92
2023/08/14 02:03:03;;;;;;;13.20;10.48;;;15.60;88.80;;;;;;5016616;28;20192;-92
2023/08/14 02:05:29;;;;;;;10.50;9.60;;;15.70;89.00;;;;;;5032690;28;20192;-92
2023/08/14 02:07:55;;;;;;;15.02;10.73;;;15.70;89.20;;;;;;5029849;28;20174;-92
2023/08/14 02:10:21;;;;;;;11.80;10.68;;;15.70;89.30;;;;;;5029912;28;20220;-93
2023/08/14 02:12:46;;;;;;;12.73;11.18;;;15.60;89.50;;;;;;5031851;28;20200;-92
2023/08/14 02:15:12;;;;;;;13.52;12.15;;;15.50;89.80;;;;;;5029577;28;20201;-92
2023/08/14 02:17:37;;;;;;;12.50;11.27;;;15.50;90.10;;;;;;5028606;28;20181;-92
2023/08/14 02:20:04;;;;;;;12.85;11.30;;;15.60;90.40;;;;;;5012832;28;20181;-92
2023/08/14 02:22:29;;;;;;;11.85;10.15;;;15.50;90.50;;;;;;5014658;28;20174;-92
2023/08/14 02:24:55;;;;;;;11.80;10.18;;;15.50;90.60;;;;;;5034053;28;20208;-92
2023/08/14 02:27:20;;;;;;;12.23;10.38;;;15.50;90.60;;;;;;5017234;28;20655;-92
2023/08/14 02:29:46;;;;;;;11.30;10.20;;;15.50;90.60;;;;;;5034009;28;20201;-92
2023/08/14 02:32:12;;;;;;;12.85;10.73;;;15.50;90.60;;;;;;5036422;28;20189;-92
2023/08/14 02:34:47;;;;;;;11.77;10.65;;;15.40;90.60;;;;;;5020655;28;20227;-92
2023/08/14 02:37:14;;;;;;;13.00;10.38;;;15.30;90.60;;;;;;5035414;28;20173;-92
2023/08/14 02:39:42;;;;;;;11.93;10.73;;;15.30;90.60;;;;;;5037104;28;20598;-92
2023/08/14 02:42:08;;;;;;;12.05;10.80;;;15.20;90.70;;;;;;5034739;28;20172;-92
2023/08/14 02:44:34;;;;;;;11.02;9.98;;;15.20;90.80;;;;;;5035352;28;20201;-92
2023/08/14 02:47:00;;;;;;;10.50;9.60;;;15.10;90.80;;;;;;5017511;28;20208;-92
2023/08/14 02:49:26;;;;;;;11.07;8.95;;;15.10;90.90;;;;;;5016684;28;20209;-92
2023/08/14 02:51:52;;;;;;;9.52;8.55;;;15.00;90.90;;;;;;5033508;28;20199;-93
2023/08/14 02:54:17;;;;;;;8.60;7.72;;;15.10;90.90;;;;;;5033487;28;20184;-92
2023/08/14 02:56:43;;;;;;;9.55;8.43;;;15.10;90.90;;;;;;5014236;28;20264;-92
2023/08/14 02:59:08;;;;;;;8.50;7.78;;;15.00;90.90;;;;;;5015368;28;20181;-92
2023/08/14 03:01:34;;;;;;;9.48;8.52;;;15.10;90.90;;;;;;5016384;28;20183;-92
2023/08/14 03:04:00;;;;;;;9.80;8.80;;;15.00;90.60;;;;;;5031306;28;20181;-92
2023/08/14 03:06:29;;;;;;;9.60;8.60;;;15.00;90.60;;;;;;5030806;28;20184;-92
2023/08/14 03:08:55;;;;;;;15.10;8.60;;;15.00;90.60;;;;;;5031529;28;20205;-92
2023/08/14 03:11:21;;;;;;;10.00;8.68;;;15.00;90.50;;;;;;5030490;28;20169;-92
2023/08/14 03:13:46;;;;;;;10.73;9.73;;;15.00;90.50;;;;;;5015276;28;20157;-92
2023/08/14 03:16:12;;;;;;;10.23;8.85;;;14.90;90.30;;;;;;5014079;28;20244;-92
2023/08/14 03:18:38;;;;;;;10.32;9.15;;;14.90;90.40;;;;;;5015744;28;20177;-92
2023/08/14 03:21:03;;;;;;;10.40;9.18;;;14.90;90.40;;;;;;5028996;28;20252;-92
2023/08/14 03:23:29;;;;;;;14.65;9.52;;;14.90;90.30;;;;;;5032156;28;20197;-92
2023/08/14 03:25:54;;;;;;;13.05;11.18;;;14.80;90.00;;;;;;5033081;28;20197;-92
2023/08/14 03:28:20;;;;;;;17.50;10.90;;;14.80;90.10;;;;;;5012149;28;20204;-92
2023/08/14 03:30:45;;;;;;;12.50;11.32;;;14.70;89.90;;;;;;5010385;28;20186;-92
2023/08/14 03:33:11;;;;;;;13.23;10.80;;;14.70;90.00;;;;;;5030936;28;20186;-92
2023/08/14 03:35:36;;;;;;;12.02;11.02;;;14.60;90.00;;;;;;5031259;28;20209;-92
2023/08/14 03:38:02;;;;;;;11.50;10.50;;;14.60;90.10;;;;;;5031286;28;20181;-92
2023/08/14 03:40:29;;;;;;;11.00;10.15;;;14.70;90.20;;;;;;5031949;28;20208;-92
2023/08/14 03:42:55;;;;;;;14.52;9.82;;;14.60;90.10;;;;;;5029962;28;20232;-92
2023/08/14 03:45:20;;;;;;;11.98;10.43;;;14.60;90.00;;;;;;5029182;28;20600;-92
2023/08/14 03:47:46;;;;;;;11.77;10.55;;;14.60;90.00;;;;;;5028735;28;20166;-92
2023/08/14 03:50:11;;;;;;;11.23;10.15;;;14.60;89.90;;;;;;5026950;28;20201;-92
2023/08/14 03:52:37;;;;;;;11.80;9.15;;;14.60;89.90;;;;;;5013677;28;20172;-92
2023/08/14 03:55:02;;;;;;;9.98;9.23;;;14.60;89.90;;;;;;5034389;28;20193;-93
2023/08/14 03:57:28;;;;;;;10.98;10.18;;;14.60;89.80;;;;;;5015208;28;20233;-92
2023/08/14 03:59:53;;;;;;;10.48;9.52;;;14.60;89.80;;;;;;5015097;28;20205;-91
2023/08/14 04:02:19;;;;;;;11.50;9.07;;;14.60;89.70;;;;;;5031549;28;20184;-92
2023/08/14 04:04:45;;;;;;;10.80;9.77;;;14.60;89.60;;;;;;5014313;28;20208;-92
2023/08/14 04:07:10;;;;;;;12.48;10.20;;;14.50;89.60;;;;;;5032138;28;20177;-92
2023/08/14 04:09:36;;;;;;;13.23;10.73;;;14.50;89.50;;;;;;5030684;28;20193;-92
2023/08/14 04:12:02;;;;;;;11.07;10.10;;;14.60;89.50;;;;;;5012579;28;20177;-92
2023/08/14 04:14:28;;;;;;;10.93;10.10;;;14.60;89.40;;;;;;5011514;28;20252;-92
2023/08/14 04:16:54;;;;;;;17.42;10.55;;;14.60;89.30;;;;;;5013401;28;20176;-92
2023/08/14 04:19:21;;;;;;;11.75;10.90;;;14.60;89.20;;;;;;5033148;28;20169;-92
2023/08/14 04:21:47;;;;;;;12.95;11.80;;;14.60;89.20;;;;;;5013235;28;20181;-92
2023/08/14 04:24:13;;;;;;;12.18;10.90;;;14.60;89.10;;;;;;5015356;28;20209;-92
2023/08/14 04:26:39;;;;;;;12.02;10.77;;;14.60;89.10;;;;;;5031923;28;20241;-92
2023/08/14 04:29:09;;;;;;;11.68;10.63;;;14.60;89.00;;;;;;5013554;28;20213;-92
2023/08/14 04:31:39;;;;;;;11.98;11.02;;;14.70;89.00;;;;;;5013753;28;20200;-92
2023/08/14 04:34:05;;;;;;;11.43;10.45;;;14.70;88.90;;;;;;5032468;28;20241;-92
2023/08/14 04:36:32;;;;;;;12.48;10.45;;;14.70;88.90;;;;;;5031065;28;20261;-92
2023/08/14 04:38:59;;;;;;;11.82;10.80;;;14.70;89.00;;;;;;5031199;28;20177;-92
2023/08/14 04:41:25;;;;;;;11.43;10.43;;;14.80;88.90;;;;;;5031042;28;20173;-92
2023/08/14 04:43:51;;;;;;;12.75;10.88;;;14.80;88.80;;;;;;5016177;28;20200;-92
2023/08/14 04:46:31;;;;;;;11.82;10.82;;;14.80;88.80;;;;;;5028947;28;20191;-92
2023/08/14 04:48:57;;;;;;;12.32;10.77;;;14.80;88.80;;;;;;5010926;28;20240;-92
2023/08/14 04:51:22;;;;;;;13.48;12.13;;;14.80;88.70;;;;;;5012445;28;20185;-92
2023/08/14 04:53:48;;;;;;;12.10;10.82;;;14.90;88.70;;;;;;5031035;28;20169;-91
2023/08/14 04:56:13;;;;;;;11.73;10.80;;;14.90;88.70;;;;;;5032161;28;20181;-92
2023/08/14 04:58:44;;;;;;;12.77;11.77;;;14.90;88.70;;;;;;5031176;28;20185;-92
2023/08/14 05:01:09;;;;;;;13.20;12.10;;;15.00;88.80;;;;;;5031491;28;20251;-91
2023/08/14 05:03:35;;;;;;;11.63;10.52;;;15.10;89.00;;;;;;5031288;28;20177;-92
2023/08/14 05:06:01;;;;;;;12.27;10.43;;;15.00;89.10;;;;;;5032789;28;20201;-92
2023/08/14 05:08:27;;;;;;;12.43;11.32;;;15.00;89.20;;;;;;5030278;28;20176;-92
2023/08/14 05:10:54;;;;;;;12.20;11.07;;;15.10;89.30;;;;;;5029918;28;20177;-92
2023/08/14 05:13:19;;;;;;;11.90;11.00;;;15.10;89.40;;;;;;5010143;28;20176;-92
2023/08/14 05:15:49;;;;;;;14.13;10.88;;;15.10;89.40;;;;;;5010072;28;20197;-92
2023/08/14 05:18:15;;;;;;;13.23;12.00;;;15.20;89.40;;;;;;5031428;28;20174;-92
2023/08/14 05:20:48;;;;;;;12.75;11.38;;;15.20;89.80;;;;;;5031547;28;20251;-92
2023/08/14 05:23:14;;;;;;;13.55;10.85;;;15.30;90.30;;;;;;5032874;28;20168;-92
2023/08/14 05:25:44;;;;;;;12.13;10.25;;;15.40;90.90;;;;;;5030754;28;20197;-92
2023/08/14 05:28:10;;;;;;;12.20;11.00;;;15.50;91.30;;;;;;5031937;28;20208;-92
2023/08/14 05:30:37;;;;;;;13.48;11.10;;;15.50;91.40;;;;;;5032867;28;20248;-92
2023/08/14 05:33:03;;;;;;;12.70;10.65;;;15.50;91.60;;;;;;5016888;28;20189;-92
2023/08/14 05:35:29;;;;;;;12.73;10.40;;;15.60;91.70;;;;;;5015294;28;20197;-92
2023/08/14 05:37:56;;;;;;;11.27;9.93;;;15.60;91.80;;;;;;5013261;28;20561;-92
2023/08/14 05:40:25;;;;;;;13.23;10.02;;;15.70;92.10;;;;;;5029274;28;20173;-92
2023/08/14 05:43:08;;;;;;;12.00;9.88;;;15.70;92.30;;;;;;5037306;28;20181;-91
2023/08/14 05:45:35;;;;;;;13.38;9.63;;;15.80;92.50;;;;;;5027158;28;20197;-91
2023/08/14 05:48:03;;;;;;;12.70;10.73;;;15.80;92.80;;;;;;5023979;28;20166;-91
2023/08/14 05:50:30;;;;;;;15.32;13.75;;;15.90;92.90;;;;;;5005904;28;20213;-91
2023/08/14 05:53:00;;;;;;;18.63;14.00;;;16.00;93.00;;;;;;5021213;28;20192;-92
2023/08/14 05:55:26;;;;;;;14.85;13.32;;;16.00;93.00;;;;;;5019107;28;20189;-91
2023/08/14 05:57:52;;;;;;;12.85;9.48;;;16.10;93.20;;;;;;5002701;28;20173;-91
2023/08/14 06:00:19;;;;;;;15.63;9.95;;;16.20;93.20;;;;;;5020729;28;20235;-92
2023/08/14 06:02:44;;;;;;;18.92;13.43;;;16.30;93.20;;;;;;5031556;28;20173;-92
2023/08/14 06:05:11;;;;;;;18.15;13.45;;;16.20;93.10;;;;;;5029626;28;20554;-92
2023/08/14 06:07:36;;;;;;;18.67;10.10;;;16.30;93.10;;;;;;5028111;28;20189;-92
2023/08/14 06:10:06;;;;;;;14.52;11.10;;;16.40;93.10;;;;;;5027569;28;20197;-92
2023/08/14 06:12:32;;;;;;;15.25;11.88;;;16.60;93.10;;;;;;5029620;28;20229;-92
2023/08/14 06:14:58;;;;;;;16.23;14.57;;;16.70;92.90;;;;;;5028919;28;20185;-92
2023/08/14 06:17:24;;;;;;;20.30;14.90;;;16.80;92.90;;;;;;5026239;28;20169;-92
2023/08/14 06:19:50;;;;;;;12.50;11.20;;;16.80;92.80;;;;;;5027704;28;20178;-92
2023/08/14 06:22:16;;;;;;;14.13;10.82;;;16.90;92.70;;;;;;5030721;28;20192;-93
2023/08/14 06:24:42;;;;;;;16.33;11.82;;;17.00;92.50;;;;;;5030891;28;20255;-92
2023/08/14 06:27:07;;;;;;;15.07;11.50;;;17.00;92.00;;;;;;5028288;28;20177;-92
2023/08/14 06:29:33;;;;;;;15.15;11.00;;;17.10;92.00;;;;;;5030229;28;20205;-92
2023/08/14 06:31:59;;;;;;;18.23;10.88;;;17.20;91.90;;;;;;5008335;28;20271;-92
2023/08/14 06:34:25;;;;;;;14.85;12.02;;;17.20;91.80;;;;;;5026080;28;20208;-92
2023/08/14 06:36:50;;;;;;;18.67;11.50;;;17.30;91.70;;;;;;5029493;28;20174;-92
2023/08/14 06:39:16;;;;;;;14.15;11.10;;;17.40;91.70;;;;;;5024429;28;20245;-92
2023/08/14 06:41:41;;;;;;;16.90;12.40;;;17.30;91.60;;;;;;5007733;28;20209;-93
2023/08/14 06:44:10;;;;;;;26.58;11.63;;;17.40;91.50;;;;;;5023832;28;20184;-92
2023/08/14 06:46:36;;;;;;;13.23;11.85;;;17.40;91.50;;;;;;5027120;28;20178;-93
2023/08/14 06:49:01;;;;;;;13.30;11.90;;;17.50;91.40;;;;;;5025813;28;20240;-92
2023/08/14 06:51:27;;;;;;;13.98;12.20;;;17.70;91.50;;;;;;5025319;28;20537;-92
2023/08/14 06:53:53;;;;;;;12.85;11.57;;;17.70;91.30;;;;;;5025292;28;20170;-92
2023/08/14 06:56:19;;;;;;;15.35;12.20;;;17.70;91.20;;;;;;5026854;28;20629;-92
2023/08/14 06:58:44;;;;;;;15.32;11.65;;;17.80;91.10;;;;;;5006872;28;20178;-92
2023/08/14 07:01:10;;;;;;;14.25;11.63;;;17.90;91.10;;;;;;5025795;28;20261;-92
2023/08/14 07:03:35;;;;;;;16.35;11.70;;;18.00;91.00;;;;;;5025908;28;20188;-92
2023/08/14 07:06:01;;;;;;;18.88;12.00;;;18.10;91.00;;;;;;5028667;28;20284;-93
2023/08/14 07:08:28;;;;;;;16.35;12.45;;;18.10;90.50;;;;;;5010198;28;20231;-92
2023/08/14 07:10:53;;;;;;;12.43;11.20;;;18.20;90.10;;;;;;5023485;28;20177;-92
2023/08/14 07:13:19;;;;;;;15.98;11.82;;;18.30;89.90;;;;;;5022832;28;20224;-93
2023/08/14 07:15:47;;;;;;;16.17;12.93;;;18.50;90.10;;;;;;5027910;28;20189;-92
2023/08/14 07:18:14;;;;;;;18.65;12.20;;;18.60;90.00;;;;;;5029962;28;20173;-92
2023/08/14 07:20:40;;;;;;;14.27;11.77;;;18.70;89.70;;;;;;5028252;28;20170;-92
2023/08/14 07:23:06;;;;;;;14.77;12.43;;;18.70;89.40;;;;;;5020572;28;20197;-92
2023/08/14 07:25:32;;;;;;;14.48;11.95;;;18.80;89.30;;;;;;5018693;28;20197;-92
2023/08/14 07:27:58;;;;;;;13.73;12.13;;;18.90;89.30;;;;;;5023487;28;20172;-92
2023/08/14 07:30:23;;;;;;;15.77;12.13;;;18.90;88.50;;;;;;5034900;28;20297;-92
2023/08/14 07:32:49;;;;;;;17.00;11.93;;;19.00;88.60;;;;;;5033377;28;20198;-92
2023/08/14 07:35:14;;;;;;;12.70;11.40;;;19.10;87.60;;;;;;5033165;28;20181;-93
2023/08/14 07:37:40;;;;;;;16.08;12.82;;;19.20;87.20;;;;;;5031589;28;20181;-92
2023/08/14 07:40:06;;;;;;;15.80;12.95;;;19.30;87.00;;;;;;5022404;28;20212;-91
2023/08/14 07:42:32;;;;;;;18.38;12.23;;;19.50;87.00;;;;;;5023745;28;20169;-92
2023/08/14 07:44:58;;;;;;;13.15;12.02;;;19.50;86.60;;;;;;5015789;28;20194;-92
2023/08/14 07:47:23;;;;;;;17.00;12.80;;;19.70;85.70;;;;;;5027411;28;20197;-91
2023/08/14 07:49:49;;;;;;;17.85;13.68;;;19.80;85.60;;;;;;5027756;28;20762;-91
2023/08/14 07:52:15;;;;;;;15.07;13.60;;;19.90;84.00;;;;;;5024476;28;20188;-92
2023/08/14 07:54:40;;;;;;;16.60;14.48;;;20.00;83.70;;;;;;5021219;28;20200;-92
2023/08/14 07:57:06;;;;;;;15.80;14.25;;;20.20;83.30;;;;;;5008423;28;20200;-92
2023/08/14 07:59:31;;;;;;;19.45;14.40;;;20.20;82.80;;;;;;5024065;28;20188;-92
2023/08/14 08:01:57;;;;;;;20.10;15.18;;;20.20;83.10;;;;;;5022891;28;20169;-92
2023/08/14 08:04:22;;;;;;;16.33;14.77;;;20.20;83.70;;;;;;5023046;28;20220;-92
2023/08/14 08:06:48;;;;;;;18.77;15.15;;;20.20;83.70;;;;;;5010794;28;20713;-92
2023/08/14 08:09:13;;;;;;;17.20;15.52;;;20.20;84.10;;;;;;5006099;28;20216;-92
2023/08/14 08:11:39;;;;;;;17.35;14.52;;;20.20;84.10;;;;;;4999486;28;20173;-91
2023/08/14 08:14:05;;;;;;;16.25;14.80;;;20.30;84.20;;;;;;5017202;28;20165;-91
2023/08/14 08:16:34;;;;;;;17.10;15.25;;;20.30;83.40;;;;;;5016059;28;20183;-90
2023/08/14 08:19:06;;;;;;;17.80;15.98;;;20.30;82.60;;;;;;5016163;28;20170;-91
2023/08/14 08:21:32;;;;;;;19.35;15.43;;;20.30;82.60;;;;;;5019962;28;20253;-90
2023/08/14 08:23:58;;;;;;;17.58;15.80;;;20.40;82.40;;;;;;5017431;28;20177;-91
2023/08/14 08:26:25;;;;;;;18.80;15.77;;;20.60;82.50;;;;;;5017111;28;20165;-91
2023/08/14 08:28:50;;;;;;;16.20;14.27;;;20.60;82.70;;;;;;5015519;28;20275;-91
2023/08/14 08:31:16;;;;;;;18.77;15.73;;;20.70;82.30;;;;;;5015922;28;20649;-91
2023/08/14 08:33:41;;;;;;;16.52;14.75;;;20.80;82.70;;;;;;5016272;28;20189;-90
2023/08/14 08:36:07;;;;;;;18.63;15.73;;;20.80;82.10;;;;;;5017521;28;20193;-91
2023/08/14 08:38:32;;;;;;;16.35;14.75;;;20.80;81.60;;;;;;5018185;28;20192;-91
2023/08/14 08:41:02;;;;;;;16.02;14.15;;;20.90;81.70;;;;;;5018706;28;20229;-91
2023/08/14 08:43:30;;;;;;;18.92;16.45;;;21.00;80.80;;;;;;5021402;28;20533;-91
2023/08/14 08:45:58;;;;;;;19.20;17.42;;;21.20;79.30;;;;;;5018747;28;20281;-91
2023/08/14 08:48:25;;;;;;;17.70;15.88;;;21.30;80.20;;;;;;5016349;28;20177;-92
2023/08/14 08:50:50;;;;;;;19.50;16.13;;;21.40;80.10;;;;;;5017413;28;20208;-92
2023/08/14 08:53:20;;;;;;;18.70;16.45;;;21.50;80.20;;;;;;5019288;28;20173;-92
2023/08/14 08:55:50;;;;;;;18.20;16.42;;;21.50;79.00;;;;;;5017543;28;20193;-91
2023/08/14 08:58:16;;;;;;;19.00;17.20;;;21.60;77.90;;;;;;5016925;28;20260;-92
2023/08/14 09:00:43;;;;;;;19.90;17.85;;;21.70;76.90;;;;;;5002248;28;20231;-91
2023/08/14 09:03:09;;;;;;;19.63;17.70;;;21.80;75.70;;;;;;5022595;28;20173;-91
2023/08/14 09:05:36;;;;;;;19.73;17.70;;;21.80;75.40;;;;;;4999623;28;20340;-90
2023/08/14 09:08:01;;;;;;;19.27;17.23;;;21.80;75.50;;;;;;5016835;28;20180;-90
2023/08/14 09:10:28;;;;;;;22.55;18.15;;;21.90;77.60;;;;;;5017193;28;20205;-90
2023/08/14 09:12:55;;;;;;;19.75;17.90;;;21.90;76.60;;;;;;5016288;28;20173;-90
2023/08/14 09:15:22;;;;;;;19.08;17.02;;;21.80;76.10;;;;;;5015203;28;20182;-91
2023/08/14 09:17:49;;;;;;;18.63;16.67;;;21.90;76.50;;;;;;5014441;28;20201;-91
2023/08/14 09:20:15;;;;;;;24.10;17.63;;;21.90;75.90;;;;;;5014098;28;20177;-91
2023/08/14 09:22:40;;;;;;;19.80;17.88;;;21.90;76.30;;;;;;5014235;28;20228;-91
2023/08/14 09:25:06;;;;;;;19.73;17.92;;;21.90;75.90;;;;;;5013886;28;20617;-90
2023/08/14 09:27:32;;;;;;;19.75;17.90;;;22.00;76.10;;;;;;5013987;28;20671;-91
2023/08/14 09:29:58;;;;;;;21.17;19.00;;;22.00;76.20;;;;;;4997745;28;20296;-91
2023/08/14 09:32:25;;;;;;;23.30;18.20;;;22.00;74.40;;;;;;5018956;28;20213;-92
2023/08/14 09:34:58;;;;;;;19.50;17.60;;;22.00;75.50;;;;;;5016480;28;20201;-93
2023/08/14 09:37:24;;;;;;;24.48;22.08;;;21.90;74.70;;;;;;5017413;28;20663;-91
2023/08/14 09:40:17;;;;;;;29.58;27.02;;;22.10;74.50;;;;;;5015503;28;20642;-92
2023/08/14 09:42:50;;;;;;;30.65;28.33;;;22.20;73.90;;;;;;5018900;28;20237;-92
2023/08/14 09:45:17;;;;;;;18.33;16.92;;;22.30;74.00;;;;;;5020594;28;20197;-92
2023/08/14 09:47:45;;;;;;;19.65;17.88;;;22.60;75.10;;;;;;5020922;28;20184;-92
2023/08/14 09:50:14;;;;;;;25.48;23.00;;;22.70;73.70;;;;;;5020024;28;20241;-92
2023/08/14 09:52:40;;;;;;;28.15;25.35;;;22.80;74.10;;;;;;5021167;28;20170;-92
2023/08/14 09:55:06;;;;;;;27.60;25.42;;;22.70;74.50;;;;;;5017520;28;20677;-93
2023/08/14 09:57:33;;;;;;;21.17;18.98;;;22.80;73.90;;;;;;5018845;28;20166;-91
2023/08/14 09:59:58;;;;;;;21.38;18.48;;;22.70;73.30;;;;;;5015836;28;20256;-92
2023/08/14 10:02:25;;;;;;;19.55;17.75;;;22.80;73.60;;;;;;4999142;28;20201;-92
2023/08/14 10:04:52;;;;;;;18.70;16.83;;;22.90;73.20;;;;;;5021154;28;20197;-93
2023/08/14 10:07:19;;;;;;;17.98;16.33;;;23.10;74.20;;;;;;5029230;28;20251;-92
2023/08/14 10:09:49;;;;;;;20.02;18.10;;;23.20;72.90;;;;;;5022231;28;20208;-91
2023/08/14 10:12:17;;;;;;;22.08;19.35;;;23.20;73.70;;;;;;5021722;28;20177;-92
2023/08/14 10:14:50;;;;;;;19.85;18.00;;;23.20;71.90;;;;;;5022375;28;20193;-91
2023/08/14 10:17:21;;;;;;;20.10;18.25;;;23.50;72.80;;;;;;5002237;28;20170;-92
2023/08/14 10:19:51;;;;;;;20.67;18.55;;;23.50;72.60;;;;;;5019881;28;20178;-92
2023/08/14 10:22:19;;;;;;;20.65;18.80;;;23.50;73.00;;;;;;5019669;28;20677;-92
2023/08/14 10:24:46;;;;;;;21.30;19.05;;;23.70;72.60;;;;;;5019792;28;20196;-92
2023/08/14 10:27:12;;;;;;;20.88;18.77;;;23.80;70.90;;;;;;5019008;28;20657;-92
2023/08/14 10:29:38;;;;;;;20.30;18.30;;;23.80;71.80;;;;;;5018481;28;20243;-92
2023/08/14 10:32:06;;;;;;;20.92;18.83;;;23.80;71.20;;;;;;5019440;28;20177;-92
2023/08/14 10:34:32;;;;;;;21.92;19.92;;;23.70;70.20;;;;;;5020981;28;20205;-92
2023/08/14 10:36:58;;;;;;;20.10;18.60;;;23.70;69.80;;;;;;5019727;28;20748;-92
2023/08/14 10:39:34;;;;;;;21.08;18.45;;;23.70;70.40;;;;;;5020349;28;20234;-93
2023/08/14 10:42:02;;;;;;;20.55;18.73;;;23.60;70.10;;;;;;5003168;28;20208;-92
2023/08/14 10:44:36;;;;;;;20.75;18.92;;;23.70;71.10;;;;;;5020166;28;20205;-92
2023/08/14 10:47:06;;;;;;;18.27;16.50;;;23.70;71.70;;;;;;5023381;28;20234;-92
2023/08/14 10:49:44;;;;;;;20.08;18.13;;;24.10;70.00;;;;;;5021578;28;20197;-92
2023/08/14 10:52:15;;;;;;;22.00;19.10;;;24.20;70.60;;;;;;5024974;28;20177;-92
2023/08/14 10:54:43;;;;;;;22.52;20.58;;;24.40;67.20;;;;;;5024409;28;20186;-92
2023/08/14 10:57:13;;;;;;;23.17;21.00;;;24.50;65.90;;;;;;5022263;28;20162;-92
2023/08/14 10:59:43;;;;;;;22.83;20.92;;;24.40;67.30;;;;;;5020586;28;20622;-92
2023/08/14 11:02:15;;;;;;;21.48;19.63;;;24.60;67.50;;;;;;5022650;28;20180;-92
2023/08/14 11:05:00;;;;;;;19.70;18.20;;;24.90;64.70;;;;;;5008143;28;20201;-92
2023/08/14 11:07:32;;;;;;;22.20;20.23;;;25.20;65.20;;;;;;5025102;28;20189;-93
2023/08/14 11:09:58;;;;;;;21.95;20.08;;;25.20;64.40;;;;;;5021089;28;20196;-93
2023/08/14 11:12:25;;;;;;;21.98;20.17;;;25.20;63.70;;;;;;5022912;28;20177;-93
2023/08/14 11:14:52;;;;;;;20.65;18.77;;;25.30;63.80;;;;;;5006918;28;20290;-93
2023/08/14 11:17:18;;;;;;;20.70;18.77;;;25.40;62.80;;;;;;5020786;28;20170;-92
2023/08/14 11:19:44;;;;;;;21.70;19.77;;;25.40;62.40;;;;;;5023723;28;20205;-92
2023/08/14 11:22:09;;;;;;;21.05;19.42;;;25.70;61.30;;;;;;5020286;28;20182;-92
2023/08/14 11:24:36;;;;;;;21.58;19.77;;;25.60;62.80;;;;;;5023023;28;20660;-92
2023/08/14 11:27:02;;;;;;;20.42;18.80;;;25.80;62.80;;;;;;5022110;28;20181;-92
2023/08/14 11:29:28;;;;;;;21.23;19.33;;;25.80;60.00;;;;;;5020957;28;20212;-92
2023/08/14 11:31:54;;;;;;;21.15;19.42;;;25.60;63.10;;;;;;5022212;28;20177;-92
2023/08/14 11:34:21;;;;;;;20.67;18.98;;;25.20;62.00;;;;;;5001733;28;20244;-92
2023/08/14 11:37:03;;;;;;;21.73;19.85;;;24.70;63.40;;;;;;5020213;28;20228;-92
2023/08/14 11:39:30;;;;;;;20.73;19.00;;;24.40;63.20;;;;;;5019615;28;20168;-92
2023/08/14 11:41:55;;;;;;;21.17;19.48;;;24.70;64.70;;;;;;5020436;28;20181;-92
2023/08/14 11:44:21;;;;;;;21.95;20.30;;;24.90;65.80;;;;;;5021524;28;20224;-92
2023/08/14 11:46:48;;;;;;;20.90;19.38;;;25.20;64.10;;;;;;5022684;28;20180;-92
2023/08/14 11:49:15;;;;;;;21.75;19.90;;;25.50;63.20;;;;;;5025778;28;20201;-92
2023/08/14 11:51:41;;;;;;;21.17;19.40;;;25.80;62.00;;;;;;5024968;28;20246;-92
2023/08/14 11:54:10;;;;;;;21.02;19.38;;;26.00;62.50;;;;;;5023577;28;20170;-92
2023/08/14 11:56:37;;;;;;;21.40;19.58;;;26.50;63.00;;;;;;5031039;28;20170;-93
2023/08/14 11:59:06;;;;;;;21.08;19.02;;;26.50;61.60;;;;;;5033982;28;20204;-93
2023/08/14 12:01:36;;;;;;;19.50;17.90;;;26.70;59.90;;;;;;5033000;28;20181;-93
2023/08/14 12:04:02;;;;;;;20.98;19.38;;;26.70;58.10;;;;;;5009025;28;20177;-92
2023/08/14 12:06:28;;;;;;;19.65;18.30;;;26.70;60.50;;;;;;5012794;28;20196;-93
2023/08/14 12:08:54;;;;;;;20.88;19.00;;;26.80;57.60;;;;;;5029102;28;20685;-92
2023/08/14 12:11:19;;;;;;;19.27;17.77;;;27.00;61.30;;;;;;5023519;28;20165;-92
2023/08/14 12:13:52;;;;;;;18.52;17.00;;;27.00;58.80;;;;;;5003275;28;20213;-92
2023/08/14 12:16:21;;;;;;;18.80;17.40;;;26.80;56.50;;;;;;5021285;28;20154;-93
2023/08/14 12:18:48;;;;;;;18.67;17.30;;;26.70;58.00;;;;;;5020387;28;20176;-92
2023/08/14 12:21:14;;;;;;;19.38;17.90;;;26.70;59.30;;;;;;5019092;28;20173;-92
2023/08/14 12:23:47;;;;;;;18.35;17.05;;;26.90;59.20;;;;;;5030684;28;20224;-92
2023/08/14 12:26:13;;;;;;;18.20;16.80;;;27.10;54.90;;;;;;5008204;28;20201;-92
2023/08/14 12:28:40;;;;;;;17.63;16.15;;;27.20;56.20;;;;;;5021086;28;20181;-92
2023/08/14 12:31:06;;;;;;;19.02;17.40;;;27.20;53.00;;;;;;5022185;28;20166;-92